Time;durP1;ratioP1;P1;durP2;ratioP2;P2;SDS_P1;SDS_P2;PMS_P1;PMS_P2;Temp;Humidity;BMP_temperature;BMP_pressure;BME280_temperature;BME280_humidity;BME280_pressure;Samples;Min_cycle;Max_cycle;Signal;HPM_P1;HPM_P2
2022/08/02 00:00:21;;;;;;;2.97;2.70;;;20.00;1.00;;;;;;5020522;28;20187;-77
2022/08/02 00:02:50;;;;;;;4.60;2.50;;;20.00;1.00;;;;;;5028450;28;20438;-76
2022/08/02 00:05:20;;;;;;;2.73;2.50;;;20.00;1.00;;;;;;5021432;28;20216;-76
2022/08/02 00:07:50;;;;;;;2.70;2.50;;;19.90;1.00;;;;;;5020952;28;20413;-76
2022/08/02 00:10:16;;;;;;;3.20;3.00;;;20.00;1.00;;;;;;5019565;28;20816;-76
2022/08/02 00:12:41;;;;;;;2.37;2.27;;;20.00;1.00;;;;;;5016926;28;20431;-76
2022/08/02 00:15:09;;;;;;;2.77;2.50;;;20.00;1.00;;;;;;5033669;28;20233;-80
2022/08/02 00:18:14;;;;;;;6.30;2.87;;;20.00;1.00;;;;;;5029394;28;20643;-80
2022/08/02 00:21:02;;;;;;;2.53;2.43;;;20.00;1.00;;;;;;5016241;28;20474;-81
2022/08/02 00:23:44;;;;;;;2.37;2.20;;;19.90;1.00;;;;;;5032867;28;20582;-80
2022/08/02 00:29:34;;;;;;;7.47;2.50;;;19.80;1.00;;;;;;5024958;28;20486;-76
2022/08/02 00:32:00;;;;;;;2.87;2.67;;;19.70;1.00;;;;;;5034624;28;20729;-77
2022/08/02 00:34:32;;;;;;;3.50;2.80;;;19.70;1.00;;;;;;5016915;28;20758;-76
2022/08/02 00:36:58;;;;;;;2.27;2.17;;;19.60;1.00;;;;;;5014880;28;20399;-76
2022/08/02 00:39:26;;;;;;;2.90;2.70;;;19.60;1.00;;;;;;5027011;28;20470;-77
2022/08/02 00:41:56;;;;;;;3.60;2.97;;;19.50;1.00;;;;;;5015118;28;20188;-77
2022/08/02 00:44:26;;;;;;;2.93;2.53;;;19.50;1.00;;;;;;5034491;28;20402;-77
2022/08/02 00:47:03;;;;;;;3.23;2.90;;;19.40;1.00;;;;;;5030958;28;20426;-77
2022/08/02 00:49:28;;;;;;;3.10;2.80;;;19.30;1.00;;;;;;5024237;28;20456;-77
2022/08/02 00:51:56;;;;;;;3.10;2.80;;;19.30;1.00;;;;;;5030399;28;20439;-76
2022/08/02 00:54:22;;;;;;;3.20;2.70;;;19.10;1.00;;;;;;5034201;28;20592;-77
2022/08/02 00:56:56;;;;;;;3.30;3.03;;;19.20;1.00;;;;;;5030436;28;20507;-77
2022/08/02 00:59:32;;;;;;;4.20;3.30;;;19.10;1.00;;;;;;5014989;28;20549;-77
2022/08/02 01:02:32;;;;;;;5.20;3.70;;;19.00;1.00;;;;;;5020784;28;20933;-77
2022/08/02 01:04:58;;;;;;;4.20;3.47;;;19.00;1.00;;;;;;5032305;28;20434;-78
2022/08/02 01:07:26;;;;;;;4.00;3.20;;;19.00;1.00;;;;;;5024849;28;20497;-76
2022/08/02 01:09:56;;;;;;;5.30;3.30;;;18.90;1.00;;;;;;5027689;28;20702;-78
2022/08/02 01:12:22;;;;;;;5.43;3.10;;;18.90;1.00;;;;;;5016438;28;20422;-77
2022/08/02 01:14:54;;;;;;;3.70;3.40;;;18.80;1.00;;;;;;5030182;28;20763;-81
2022/08/02 01:18:14;;;;;;;8.23;3.20;;;18.80;1.00;;;;;;5014910;28;20175;-81
2022/08/02 01:21:11;;;;;;;3.47;3.17;;;18.70;1.00;;;;;;5051493;28;20421;-81
2022/08/02 01:24:16;;;;;;;3.47;3.17;;;18.70;1.00;;;;;;5050066;28;20426;-81
2022/08/02 01:27:26;;;;;;;5.00;3.63;;;18.60;1.00;;;;;;4953455;29;20417;-81
2022/08/02 01:29:55;;;;;;;7.13;3.30;;;18.60;1.00;;;;;;4973215;28;20564;-78
2022/08/02 01:32:47;;;;;;;3.40;3.10;;;18.50;1.00;;;;;;4972363;28;20927;-77
2022/08/02 01:35:18;;;;;;;10.20;3.10;;;18.50;1.00;;;;;;4970659;28;20848;-77
2022/08/02 01:38:22;;;;;;;4.53;3.20;;;18.40;1.00;;;;;;4972164;28;20464;-77
2022/08/02 01:41:09;;;;;;;3.77;3.47;;;18.30;1.00;;;;;;4952626;29;20436;-77
2022/08/02 01:43:57;;;;;;;3.93;3.50;;;18.30;1.00;;;;;;4936760;29;20467;-77
2022/08/02 01:46:41;;;;;;;3.53;3.27;;;18.20;1.00;;;;;;4934779;29;20549;-82
2022/08/02 01:49:23;;;;;;;4.23;3.60;;;18.10;1.00;;;;;;4937659;29;20461;-81
2022/08/02 01:52:21;;;;;;;3.53;3.33;;;18.10;1.00;;;;;;4940197;29;20511;-81
2022/08/02 01:54:58;;;;;;;3.80;3.50;;;18.00;1.00;;;;;;4910768;29;20455;-81
2022/08/02 01:57:44;;;;;;;3.67;3.30;;;17.90;1.00;;;;;;4895771;29;20510;-81
2022/08/02 02:00:11;;;;;;;3.57;3.37;;;17.80;1.00;;;;;;4896526;29;20425;-77
2022/08/02 02:02:41;;;;;;;3.80;3.50;;;17.90;1.00;;;;;;4895978;29;20440;-77
2022/08/02 02:05:14;;;;;;;3.50;3.20;;;17.80;1.00;;;;;;4990675;28;20449;-77
2022/08/02 02:07:42;;;;;;;3.70;3.40;;;17.80;1.00;;;;;;4991023;28;20445;-77
2022/08/02 02:10:19;;;;;;;4.10;3.70;;;17.70;1.00;;;;;;4991538;28;20839;-77
2022/08/02 02:13:01;;;;;;;4.13;3.73;;;17.70;1.00;;;;;;4991416;28;20870;-77
2022/08/02 02:15:36;;;;;;;3.40;3.20;;;17.60;1.00;;;;;;4979365;28;20495;-82
2022/08/02 02:18:11;;;;;;;3.53;3.23;;;17.60;1.00;;;;;;5024279;28;20430;-81
2022/08/02 02:20:38;;;;;;;3.57;3.23;;;17.50;1.00;;;;;;5026335;28;20466;-82
2022/08/02 02:23:16;;;;;;;3.70;3.40;;;17.50;1.00;;;;;;5024493;28;20507;-82
2022/08/02 02:25:43;;;;;;;5.17;3.50;;;17.40;1.00;;;;;;5025846;28;20434;-81
2022/08/02 02:28:31;;;;;;;3.50;3.30;;;17.40;1.00;;;;;;5021601;28;20415;-82
2022/08/02 02:31:20;;;;;;;3.20;3.00;;;17.40;1.00;;;;;;5034370;28;22455;-81
2022/08/02 02:34:21;;;;;;;3.77;3.47;;;17.30;1.00;;;;;;5035601;28;20399;-81
2022/08/02 02:37:32;;;;;;;4.50;3.50;;;17.20;1.00;;;;;;5030119;28;20435;-82
2022/08/02 02:40:03;;;;;;;5.70;3.47;;;17.10;1.00;;;;;;5029449;28;20422;-82
2022/08/02 02:42:46;;;;;;;4.10;3.80;;;17.00;1.00;;;;;;5016863;28;20389;-82
2022/08/02 02:45:50;;;;;;;4.73;3.87;;;17.00;1.00;;;;;;5025158;28;20478;-81
2022/08/02 02:51:42;;;;;;;5.93;4.40;;;17.00;1.00;;;;;;5032709;28;20428;-82
2022/08/02 02:54:16;;;;;;;4.33;4.03;;;17.00;1.00;;;;;;5040928;28;20771;-82
2022/08/02 02:57:08;;;;;;;5.30;3.80;;;16.90;1.00;;;;;;5022725;28;20379;-82
2022/08/02 02:59:45;;;;;;;4.10;3.70;;;16.90;1.00;;;;;;5034433;28;20463;-81
2022/08/02 03:02:56;;;;;;;4.50;4.00;;;16.90;1.00;;;;;;5029346;28;20507;-78
2022/08/02 03:05:21;;;;;;;3.60;3.30;;;16.90;1.00;;;;;;5016208;28;20507;-77
2022/08/02 03:08:14;;;;;;;3.40;3.20;;;16.90;1.00;;;;;;5024387;28;20520;-77
2022/08/02 03:10:45;;;;;;;4.60;4.20;;;17.00;1.00;;;;;;5027737;28;20200;-77
2022/08/02 03:13:11;;;;;;;7.63;4.37;;;17.00;1.00;;;;;;5026292;28;20398;-78
2022/08/02 03:16:02;;;;;;;6.63;3.93;;;17.10;1.00;;;;;;5023974;28;20389;-82
2022/08/02 03:18:40;;;;;;;4.03;3.70;;;17.00;1.00;;;;;;5018504;28;20402;-82
2022/08/02 03:21:08;;;;;;;5.73;3.80;;;17.00;1.00;;;;;;5019850;28;20423;-82
2022/08/02 03:23:41;;;;;;;4.40;3.87;;;17.00;1.00;;;;;;5023017;28;20395;-82
2022/08/02 03:26:20;;;;;;;6.53;4.40;;;17.00;1.00;;;;;;5033054;28;20403;-82
2022/08/02 03:32:46;;;;;;;4.07;3.77;;;16.90;1.00;;;;;;5035376;28;20411;-78
2022/08/02 03:35:17;;;;;;;7.73;3.67;;;16.80;1.00;;;;;;5035044;28;20398;-78
2022/08/02 03:38:21;;;;;;;4.80;4.30;;;16.70;1.00;;;;;;5023529;28;20415;-78
2022/08/02 03:40:51;;;;;;;4.87;3.53;;;16.70;1.00;;;;;;5016327;28;20840;-78
2022/08/02 03:43:22;;;;;;;4.40;4.00;;;16.70;1.00;;;;;;5028223;28;20390;-78
2022/08/02 03:46:15;;;;;;;4.60;4.20;;;16.70;1.00;;;;;;5015032;28;20395;-82
2022/08/02 03:49:02;;;;;;;11.70;4.70;;;16.70;1.00;;;;;;5031897;28;20427;-82
2022/08/02 03:51:28;;;;;;;5.90;4.50;;;16.60;1.00;;;;;;5035389;28;20396;-82
2022/08/02 03:53:56;;;;;;;4.40;4.00;;;16.60;1.00;;;;;;5020628;28;20415;-82
2022/08/02 03:56:28;;;;;;;6.00;3.80;;;16.60;1.00;;;;;;5035167;28;20157;-83
2022/08/02 03:59:38;;;;;;;4.20;3.90;;;16.60;1.00;;;;;;5033518;28;20448;-82
2022/08/02 04:02:20;;;;;;;5.70;3.87;;;16.50;1.00;;;;;;5033840;28;20526;-82
2022/08/02 04:04:56;;;;;;;5.20;3.97;;;16.50;1.00;;;;;;5034845;28;20381;-82
2022/08/02 04:07:27;;;;;;;5.00;4.47;;;16.40;1.00;;;;;;5025806;28;20435;-82
2022/08/02 04:10:03;;;;;;;5.03;4.43;;;16.40;1.00;;;;;;5014857;28;20430;-82
2022/08/02 04:12:32;;;;;;;8.87;4.27;;;16.40;1.00;;;;;;5024796;28;20430;-82
2022/08/02 04:15:21;;;;;;;4.20;3.80;;;16.30;1.00;;;;;;5021853;28;20405;-82
2022/08/02 04:18:01;;;;;;;4.67;4.27;;;16.30;1.00;;;;;;5030780;28;20415;-78
2022/08/02 04:20:39;;;;;;;5.43;4.57;;;16.30;1.00;;;;;;5023422;28;20430;-79
2022/08/02 04:23:33;;;;;;;6.43;4.37;;;16.20;1.00;;;;;;5043594;28;20424;-78
2022/08/02 04:26:04;;;;;;;4.43;4.00;;;16.30;1.00;;;;;;5027426;28;20933;-79
2022/08/02 04:28:34;;;;;;;7.03;4.30;;;16.30;1.00;;;;;;5013340;28;20396;-78
2022/08/02 04:31:17;;;;;;;4.80;4.10;;;16.20;1.00;;;;;;5013532;28;20461;-79
2022/08/02 04:33:57;;;;;;;4.57;4.20;;;16.20;1.00;;;;;;5015036;28;20902;-78
2022/08/02 04:36:23;;;;;;;4.57;4.17;;;16.30;1.00;;;;;;5032979;28;20389;-78
2022/08/02 04:38:49;;;;;;;4.60;3.90;;;16.20;1.00;;;;;;5034353;28;20437;-78
2022/08/02 04:41:20;;;;;;;5.70;4.23;;;16.20;1.00;;;;;;5014565;28;20416;-78
2022/08/02 04:43:51;;;;;;;4.73;4.33;;;16.20;1.00;;;;;;5017686;28;20779;-78
2022/08/02 04:46:20;;;;;;;4.60;4.20;;;16.20;1.00;;;;;;5022770;28;21120;-80
2022/08/02 04:48:50;;;;;;;4.47;4.07;;;16.30;1.00;;;;;;5017649;28;20499;-79
2022/08/02 04:51:37;;;;;;;4.17;3.70;;;16.30;1.00;;;;;;5013623;28;20870;-79
2022/08/02 04:54:27;;;;;;;7.23;4.97;;;16.30;1.00;;;;;;5011757;28;20441;-80
2022/08/02 04:56:53;;;;;;;7.63;4.23;;;16.40;1.00;;;;;;5028187;28;20772;-79
2022/08/02 04:59:21;;;;;;;4.60;4.10;;;16.40;1.00;;;;;;5020847;28;20439;-80
2022/08/02 05:02:20;;;;;;;7.63;4.47;;;16.50;1.00;;;;;;5039988;28;20176;-84
2022/08/02 05:04:50;;;;;;;4.30;3.93;;;16.60;1.00;;;;;;5049437;28;20432;-84
2022/08/02 05:07:20;;;;;;;5.03;4.60;;;16.70;1.00;;;;;;5032909;28;20776;-84
2022/08/02 05:09:50;;;;;;;5.20;4.10;;;16.80;1.00;;;;;;5032308;28;20819;-83
2022/08/02 05:12:38;;;;;;;6.47;4.33;;;16.90;1.00;;;;;;5021925;28;20486;-85
2022/08/02 05:15:20;;;;;;;8.23;4.03;;;17.00;1.00;;;;;;5020618;28;20410;-85
2022/08/02 05:17:56;;;;;;;4.70;4.27;;;17.10;1.00;;;;;;5028205;28;20406;-85
2022/08/02 05:24:14;;;;;;;3.30;3.10;;;17.20;1.00;;;;;;5026356;28;20382;-85
2022/08/02 05:26:50;;;;;;;4.67;3.43;;;17.30;1.00;;;;;;5036830;28;20446;-84
2022/08/02 05:32:51;;;;;;;4.73;3.80;;;17.40;1.00;;;;;;5027586;28;20387;-84
2022/08/02 05:35:19;;;;;;;4.30;3.87;;;17.40;1.00;;;;;;5019018;28;20429;-84
2022/08/02 05:37:45;;;;;;;3.80;3.50;;;17.50;1.00;;;;;;5019185;28;20418;-84
2022/08/02 05:40:15;;;;;;;3.40;3.20;;;17.60;1.00;;;;;;5017068;28;20833;-84
2022/08/02 05:46:20;;;;;;;3.93;3.50;;;17.80;1.00;;;;;;5023640;28;20448;-84
2022/08/02 05:48:50;;;;;;;3.90;3.60;;;17.90;1.00;;;;;;5042438;28;20491;-82
2022/08/02 05:51:58;;;;;;;3.67;3.37;;;18.00;1.00;;;;;;5024367;28;20928;-81
2022/08/02 05:54:45;;;;;;;3.63;3.43;;;18.20;1.00;;;;;;5046619;28;20446;-81
2022/08/02 05:57:41;;;;;;;3.70;3.40;;;18.40;1.00;;;;;;5050138;28;20425;-81
2022/08/02 06:00:12;;;;;;;4.37;3.87;;;18.60;1.00;;;;;;5043879;28;20439;-81
2022/08/02 06:03:35;;;;;;;7.23;3.30;;;18.80;1.00;;;;;;5052333;28;20437;-83
2022/08/02 06:06:31;;;;;;;9.73;4.07;;;19.10;1.00;;;;;;5006837;28;20510;-83
2022/08/02 06:09:15;;;;;;;7.77;4.17;;;19.60;1.00;;;;;;4990770;28;20480;-84
2022/08/02 06:11:52;;;;;;;12.47;4.10;;;20.00;1.00;;;;;;4992808;28;20411;-83
2022/08/02 06:14:21;;;;;;;5.67;3.53;;;20.30;1.00;;;;;;4995648;28;21039;-84
2022/08/02 06:20:48;;;;;;;3.57;3.27;;;20.80;1.00;;;;;;4999713;28;20451;-83
2022/08/02 06:23:50;;;;;;;8.03;2.80;;;21.10;1.00;;;;;;4998815;28;20442;-85
2022/08/02 06:26:18;;;;;;;7.13;3.00;;;21.30;1.00;;;;;;4996616;28;20494;-84
2022/08/02 06:28:55;;;;;;;7.50;2.97;;;21.50;1.00;;;;;;4988185;28;20600;-84
2022/08/02 06:31:57;;;;;;;3.50;2.90;;;21.70;1.00;;;;;;4967393;28;20495;-84
2022/08/02 06:34:23;;;;;;;3.90;3.10;;;21.80;1.00;;;;;;4944009;29;20926;-84
2022/08/02 06:37:05;;;;;;;5.47;2.50;;;21.90;1.00;;;;;;4986686;28;20429;-84
2022/08/02 06:39:38;;;;;;;5.43;2.50;;;22.00;1.00;;;;;;5025055;28;20421;-83
2022/08/02 06:42:14;;;;;;;5.73;3.20;;;22.00;1.00;;;;;;5034414;28;20407;-83
2022/08/02 06:44:40;;;;;;;6.17;3.10;;;22.00;1.00;;;;;;5033482;28;20935;-85
2022/08/02 06:47:06;;;;;;;10.33;3.23;;;22.10;1.00;;;;;;5016031;28;20429;-84
2022/08/02 06:49:57;;;;;;;28.03;3.50;;;22.20;1.00;;;;;;5015779;28;20459;-82
2022/08/02 06:52:50;;;;;;;10.30;3.57;;;22.30;1.00;;;;;;5035247;28;20389;-82
2022/08/02 06:55:16;;;;;;;5.00;2.83;;;22.40;1.00;;;;;;5031075;28;20430;-82
2022/08/02 06:57:51;;;;;;;5.90;2.67;;;22.50;1.00;;;;;;5021742;28;20414;-82
2022/08/02 07:03:45;;;;;;;8.80;2.87;;;22.60;1.00;;;;;;5020348;28;20465;-84
2022/08/02 07:06:15;;;;;;;3.10;2.37;;;22.70;1.00;;;;;;5014771;28;20779;-82
2022/08/02 07:09:02;;;;;;;5.03;2.47;;;22.90;1.00;;;;;;5027024;28;20459;-83
2022/08/02 07:11:50;;;;;;;3.67;2.90;;;23.00;1.00;;;;;;5017046;28;20502;-82
2022/08/02 07:14:50;;;;;;;5.20;3.13;;;23.10;1.00;;;;;;5028388;28;20848;-88
2022/08/02 07:17:33;;;;;;;9.13;2.60;;;23.20;1.00;;;;;;5027886;28;20423;-88
2022/08/02 07:20:09;;;;;;;3.70;2.50;;;23.30;1.00;;;;;;5020480;28;20415;-82
2022/08/02 07:22:45;;;;;;;16.20;2.83;;;23.40;1.00;;;;;;5029263;28;20752;-81
2022/08/02 07:25:21;;;;;;;8.43;2.87;;;23.60;1.00;;;;;;5027712;28;20418;-82
2022/08/02 07:27:50;;;;;;;14.27;2.40;;;23.70;1.00;;;;;;5016052;28;20465;-82
2022/08/02 07:30:20;;;;;;;4.97;2.10;;;23.80;1.00;;;;;;5031557;28;20457;-82
2022/08/02 07:32:50;;;;;;;4.37;2.63;;;24.00;1.00;;;;;;5016434;28;20455;-82
2022/08/02 07:35:21;;;;;;;5.60;2.53;;;24.10;1.00;;;;;;5015629;28;20396;-82
2022/08/02 07:37:51;;;;;;;2.23;2.10;;;24.20;1.00;;;;;;5019537;28;20570;-81
2022/08/02 07:40:56;;;;;;;5.40;2.53;;;24.20;1.00;;;;;;5032418;28;20978;-82
2022/08/02 07:43:56;;;;;;;7.33;2.07;;;24.20;1.00;;;;;;5016684;28;20455;-83
2022/08/02 07:47:02;;;;;;;4.30;2.00;;;24.20;1.00;;;;;;5017151;28;20933;-81
2022/08/02 07:49:45;;;;;;;1.90;1.80;;;24.20;1.00;;;;;;5018402;28;20464;-82
2022/08/02 07:52:10;;;;;;;6.00;2.30;;;24.20;1.00;;;;;;5020752;28;20513;-82
2022/08/02 07:55:26;;;;;;;7.10;2.10;;;24.20;1.00;;;;;;5028020;28;20521;-83
2022/08/02 07:57:52;;;;;;;3.57;1.67;;;24.40;1.00;;;;;;5034227;28;20173;-82
2022/08/02 08:00:18;;;;;;;4.00;2.03;;;24.50;1.00;;;;;;5032101;28;20418;-82
2022/08/02 08:02:45;;;;;;;4.50;2.10;;;24.60;1.00;;;;;;5029100;28;20465;-82
2022/08/02 08:05:11;;;;;;;5.20;1.80;;;24.70;1.00;;;;;;5018993;28;20561;-82
2022/08/02 08:07:39;;;;;;;5.60;1.77;;;24.90;1.00;;;;;;5014131;28;20544;-83
2022/08/02 08:10:05;;;;;;;2.10;1.90;;;24.90;1.00;;;;;;5025102;28;20459;-82
2022/08/02 08:12:31;;;;;;;1.90;1.77;;;25.00;1.00;;;;;;5025354;28;20430;-82
2022/08/02 08:14:57;;;;;;;2.03;1.70;;;25.20;1.00;;;;;;5013895;28;20431;-82
2022/08/02 08:17:23;;;;;;;2.83;1.43;;;25.30;1.00;;;;;;5013955;28;20312;-83
2022/08/02 08:20:20;;;;;;;5.43;2.00;;;25.40;1.00;;;;;;5018309;28;20187;-82
2022/08/02 08:23:03;;;;;;;1.83;1.40;;;25.40;1.00;;;;;;5027689;28;20180;-82
2022/08/02 08:25:32;;;;;;;4.67;1.37;;;25.50;1.00;;;;;;5021208;28;20422;-82
2022/08/02 08:28:03;;;;;;;1.87;1.50;;;25.60;1.00;;;;;;5042002;28;20419;-82
2022/08/02 08:30:32;;;;;;;3.17;1.40;;;25.70;1.00;;;;;;5015087;28;20976;-82
2022/08/02 08:33:03;;;;;;;1.67;1.57;;;25.80;1.00;;;;;;5031930;28;20430;-82
2022/08/02 08:35:28;;;;;;;1.53;1.43;;;25.90;1.00;;;;;;5019248;28;20505;-81
2022/08/02 08:38:03;;;;;;;3.90;1.53;;;25.90;1.00;;;;;;5013203;28;20489;-82
2022/08/02 08:40:33;;;;;;;6.20;1.70;;;26.10;1.00;;;;;;5014477;28;20179;-82
2022/08/02 08:43:20;;;;;;;5.00;1.47;;;26.20;1.00;;;;;;5015734;28;20429;-82
2022/08/02 08:45:47;;;;;;;1.43;1.33;;;26.30;1.00;;;;;;5020703;28;20422;-83
2022/08/02 08:48:15;;;;;;;1.60;1.00;;;26.40;1.00;;;;;;5020055;28;20433;-82
2022/08/02 08:51:20;;;;;;;2.87;1.17;;;26.40;1.00;;;;;;5013551;28;20466;-82
2022/08/02 08:53:53;;;;;;;1.83;1.20;;;26.50;1.00;;;;;;5029491;28;20966;-82
2022/08/02 08:59:40;;;;;;;1.97;1.17;;;26.70;1.00;;;;;;5025381;28;20414;-82
2022/08/02 09:02:33;;;;;;;3.87;1.33;;;26.80;1.00;;;;;;5022826;28;20416;-81
2022/08/02 09:05:03;;;;;;;7.70;1.57;;;27.00;1.00;;;;;;5030006;28;20655;-81
2022/08/02 09:07:32;;;;;;;1.20;1.10;;;27.10;1.00;;;;;;5031527;28;20448;-81
2022/08/02 09:13:22;;;;;;;5.50;1.60;;;27.30;1.00;;;;;;5029543;28;21038;-80
2022/08/02 09:16:14;;;;;;;3.27;1.60;;;27.30;1.00;;;;;;5024297;28;20440;-81
2022/08/02 09:19:18;;;;;;;2.40;1.33;;;27.30;1.00;;;;;;5018526;28;20435;-81
2022/08/02 09:22:00;;;;;;;2.87;1.20;;;27.30;1.00;;;;;;5026900;28;20430;-81
2022/08/02 09:24:53;;;;;;;1.30;1.20;;;27.50;1.00;;;;;;5019835;28;20424;-82
2022/08/02 09:27:22;;;;;;;2.70;1.20;;;27.50;1.00;;;;;;5022964;28;20971;-81
2022/08/02 09:29:57;;;;;;;3.90;1.30;;;27.60;1.00;;;;;;5012373;28;20460;-81
2022/08/02 09:32:45;;;;;;;6.80;1.67;;;27.70;1.00;;;;;;5026849;28;20931;-79
2022/08/02 09:35:41;;;;;;;3.83;1.60;;;27.70;1.00;;;;;;5018871;28;20426;-79
2022/08/02 09:38:14;;;;;;;1.67;1.47;;;27.70;1.00;;;;;;5014308;28;20433;-79
2022/08/02 09:40:50;;;;;;;6.00;1.70;;;27.70;1.00;;;;;;5030447;28;20925;-79
2022/08/02 09:43:16;;;;;;;7.60;1.40;;;27.70;1.00;;;;;;5030084;28;20508;-79
2022/08/02 09:45:42;;;;;;;1.50;1.40;;;27.80;1.00;;;;;;5018484;28;20935;-83
2022/08/02 09:48:08;;;;;;;1.80;1.70;;;27.90;1.00;;;;;;5014076;28;20195;-78
2022/08/02 09:50:38;;;;;;;2.00;1.40;;;27.90;1.00;;;;;;5014523;28;20202;-76
2022/08/02 09:53:05;;;;;;;1.40;1.30;;;28.00;1.00;;;;;;5013897;28;20423;-76
2022/08/02 09:55:31;;;;;;;1.73;1.10;;;28.20;1.00;;;;;;5021933;28;20442;-77
2022/08/02 09:58:23;;;;;;;1.60;1.50;;;28.30;1.00;;;;;;5022271;28;20925;-76
2022/08/02 10:00:57;;;;;;;5.37;1.30;;;28.50;1.00;;;;;;5015380;28;20766;-76
2022/08/02 10:03:23;;;;;;;1.40;1.30;;;28.50;1.00;;;;;;5020505;28;20810;-76
2022/08/02 10:05:57;;;;;;;1.50;1.40;;;28.50;1.00;;;;;;5026846;28;20431;-78
2022/08/02 10:08:24;;;;;;;1.50;1.40;;;28.60;1.00;;;;;;5028418;28;20440;-78
2022/08/02 10:10:59;;;;;;;1.67;1.30;;;28.60;1.00;;;;;;5029275;28;20459;-79
2022/08/02 10:13:51;;;;;;;5.80;1.67;;;28.90;1.00;;;;;;5015148;28;20433;-78
2022/08/02 10:16:22;;;;;;;2.40;1.10;;;29.00;1.00;;;;;;5022203;28;20430;-78
2022/08/02 10:18:56;;;;;;;1.27;1.20;;;29.20;1.00;;;;;;5026726;28;20840;-78
2022/08/02 10:21:36;;;;;;;2.33;1.57;;;29.30;1.00;;;;;;5028708;28;20504;-76
2022/08/02 10:24:10;;;;;;;2.40;1.20;;;29.30;1.00;;;;;;5031699;28;20818;-76
2022/08/02 10:26:58;;;;;;;2.03;1.30;;;29.30;1.00;;;;;;5037611;28;20424;-76
2022/08/02 10:29:31;;;;;;;1.30;1.20;;;29.40;1.00;;;;;;5025995;28;20457;-76
2022/08/02 10:32:09;;;;;;;4.83;2.10;;;29.30;1.00;;;;;;5024208;28;20517;-77
2022/08/02 10:35:09;;;;;;;3.47;1.20;;;29.10;1.00;;;;;;5017703;28;20465;-77
2022/08/02 10:37:38;;;;;;;1.93;1.40;;;29.10;1.00;;;;;;5023647;28;20430;-76
2022/08/02 10:40:21;;;;;;;1.50;1.40;;;28.90;1.00;;;;;;5030917;28;20438;-76
2022/08/02 10:42:52;;;;;;;4.07;1.37;;;28.80;1.00;;;;;;5033711;28;20417;-76
2022/08/02 10:45:38;;;;;;;2.83;1.33;;;28.70;1.00;;;;;;5029329;28;20423;-76
2022/08/02 10:48:11;;;;;;;1.30;1.20;;;28.50;1.00;;;;;;5028045;28;20423;-76
2022/08/02 10:50:45;;;;;;;1.53;1.30;;;28.40;1.00;;;;;;5016129;28;20490;-78
2022/08/02 10:53:33;;;;;;;2.90;1.30;;;28.70;1.00;;;;;;5034604;28;20413;-78
2022/08/02 10:56:04;;;;;;;1.43;1.33;;;28.90;1.00;;;;;;5024125;28;20415;-78
2022/08/02 10:58:44;;;;;;;1.43;1.13;;;29.10;1.00;;;;;;5019223;28;20466;-78
2022/08/02 11:01:35;;;;;;;4.07;1.30;;;29.10;1.00;;;;;;5034548;28;20855;-78
2022/08/02 11:04:15;;;;;;;2.57;1.20;;;29.40;1.00;;;;;;5026524;28;20536;-78
2022/08/02 11:07:13;;;;;;;2.30;1.40;;;29.10;1.00;;;;;;5032320;28;20432;-76
2022/08/02 11:09:46;;;;;;;1.13;1.13;;;29.20;1.00;;;;;;5030376;28;20497;-76
2022/08/02 11:12:17;;;;;;;1.47;1.37;;;29.40;1.00;;;;;;5035459;28;20414;-76
2022/08/02 11:14:45;;;;;;;1.47;1.37;;;29.50;1.00;;;;;;5020119;28;20441;-76
2022/08/02 11:17:16;;;;;;;1.20;1.10;;;29.60;1.00;;;;;;5016156;28;20484;-76
2022/08/02 11:20:08;;;;;;;4.10;1.10;;;29.80;1.00;;;;;;5028809;28;20462;-76
2022/08/02 11:22:40;;;;;;;1.80;1.27;;;30.00;1.00;;;;;;5031602;28;20443;-78
2022/08/02 11:25:26;;;;;;;1.30;1.17;;;30.20;1.00;;;;;;5026948;28;20417;-78
2022/08/02 11:27:55;;;;;;;1.97;1.17;;;30.20;1.00;;;;;;5014845;28;20919;-78
2022/08/02 11:30:33;;;;;;;1.40;1.30;;;30.00;1.00;;;;;;5034844;28;20532;-78
2022/08/02 11:33:00;;;;;;;1.03;1.03;;;29.70;1.00;;;;;;5021227;28;20421;-78
2022/08/02 11:35:36;;;;;;;1.60;1.50;;;29.70;1.00;;;;;;5021476;28;20457;-76
2022/08/02 11:38:19;;;;;;;1.00;1.00;;;29.70;1.00;;;;;;5023800;28;20409;-77
2022/08/02 11:40:51;;;;;;;4.53;1.27;;;29.90;1.00;;;;;;5015647;28;20418;-76
2022/08/02 11:43:30;;;;;;;1.40;1.30;;;30.00;1.00;;;;;;5030552;28;20417;-77
2022/08/02 11:45:56;;;;;;;9.50;1.40;;;30.20;1.00;;;;;;5025440;28;20561;-76
2022/08/02 11:48:43;;;;;;;1.57;1.07;;;30.40;1.00;;;;;;5018621;28;20427;-76
2022/08/02 11:51:13;;;;;;;1.13;1.10;;;30.60;1.00;;;;;;5017265;28;20462;-78
2022/08/02 11:53:51;;;;;;;4.50;1.13;;;30.70;1.00;;;;;;5033839;28;20423;-78
2022/08/02 11:56:28;;;;;;;2.70;1.20;;;30.90;1.00;;;;;;5028484;28;20415;-78
2022/08/02 11:59:09;;;;;;;1.30;1.20;;;31.10;1.00;;;;;;5035338;28;20410;-78
2022/08/02 12:01:39;;;;;;;2.87;1.30;;;31.00;1.00;;;;;;5020054;28;20431;-78
2022/08/02 12:04:06;;;;;;;2.90;1.20;;;31.30;1.00;;;;;;5032626;28;20408;-78
2022/08/02 12:06:32;;;;;;;4.10;1.07;;;31.60;1.00;;;;;;5022129;28;20466;-76
2022/08/02 12:09:10;;;;;;;6.17;1.30;;;31.40;1.00;;;;;;5026936;28;20905;-76
2022/08/02 12:11:36;;;;;;;1.73;1.20;;;31.40;1.00;;;;;;5028827;28;20411;-76
2022/08/02 12:14:02;;;;;;;1.10;1.10;;;31.40;1.00;;;;;;5030756;28;20942;-76
2022/08/02 12:19:27;;;;;;;1.10;1.10;;;31.10;1.00;;;;;;5022198;28;20431;-76
2022/08/02 12:22:26;;;;;;;5.43;1.20;;;31.40;1.00;;;;;;5020026;28;20793;-76
2022/08/02 12:24:56;;;;;;;1.30;1.20;;;31.40;1.00;;;;;;5016984;28;20447;-70
2022/08/02 12:27:28;;;;;;;1.10;1.10;;;31.60;1.00;;;;;;5029135;28;20512;-70
2022/08/02 12:30:12;;;;;;;1.20;1.20;;;31.80;1.00;;;;;;5021461;28;20459;-71
2022/08/02 12:32:39;;;;;;;4.10;1.43;;;32.00;1.00;;;;;;5020051;28;20431;-70
2022/08/02 12:35:05;;;;;;;2.53;1.40;;;31.90;1.00;;;;;;5020051;28;20593;-69
2022/08/02 12:37:31;;;;;;;1.30;1.20;;;31.80;1.00;;;;;;5022245;28;21095;-77
2022/08/02 12:39:57;;;;;;;2.80;1.13;;;31.90;1.00;;;;;;5022711;28;20503;-75
2022/08/02 12:42:23;;;;;;;3.13;1.30;;;32.00;1.00;;;;;;5028290;28;20315;-78
2022/08/02 12:45:04;;;;;;;3.43;1.33;;;32.00;1.00;;;;;;5017017;28;20531;-79
2022/08/02 12:47:30;;;;;;;3.40;1.23;;;31.90;1.00;;;;;;5023714;28;20196;-77
2022/08/02 12:50:36;;;;;;;3.97;1.37;;;31.90;1.00;;;;;;5031893;28;20512;-76
2022/08/02 12:53:12;;;;;;;1.13;1.03;;;32.00;1.00;;;;;;4934380;29;20184;-69
2022/08/02 12:55:53;;;;;;;2.80;1.17;;;32.10;1.00;;;;;;4933565;29;20435;-69
2022/08/02 12:58:19;;;;;;;1.10;1.00;;;32.10;1.00;;;;;;4933446;29;20423;-69
2022/08/02 13:00:52;;;;;;;1.47;1.27;;;32.10;1.00;;;;;;4934114;29;20519;-69
2022/08/02 13:03:33;;;;;;;1.50;1.40;;;31.90;1.00;;;;;;4944321;29;20187;-78
2022/08/02 13:06:03;;;;;;;3.60;1.20;;;32.00;1.00;;;;;;4944385;29;20525;-88
2022/08/02 13:08:28;;;;;;;2.87;1.20;;;31.90;1.00;;;;;;4952819;29;20537;-76
2022/08/02 13:10:57;;;;;;;1.40;1.30;;;32.00;1.00;;;;;;4947213;29;21044;-76
2022/08/02 13:13:26;;;;;;;2.57;1.20;;;31.90;1.00;;;;;;4952959;29;20685;-76
2022/08/02 13:15:57;;;;;;;1.90;1.30;;;32.00;1.00;;;;;;4939797;29;20474;-76
2022/08/02 13:18:23;;;;;;;1.10;1.10;;;31.80;1.00;;;;;;4938970;29;20432;-77
2022/08/02 13:21:04;;;;;;;2.10;1.30;;;31.60;1.00;;;;;;4952856;28;20502;-77
2022/08/02 13:23:56;;;;;;;3.60;1.40;;;31.60;1.00;;;;;;4984492;28;20555;-78
2022/08/02 13:26:22;;;;;;;1.57;1.30;;;31.50;1.00;;;;;;5017870;28;20428;-80
2022/08/02 13:28:48;;;;;;;1.43;1.20;;;31.60;1.00;;;;;;5015908;28;20450;-74
2022/08/02 13:31:14;;;;;;;1.40;1.30;;;31.80;1.00;;;;;;5024439;28;20452;-74
2022/08/02 13:33:39;;;;;;;1.57;1.37;;;31.90;1.00;;;;;;5023041;28;20608;-75
2022/08/02 13:36:05;;;;;;;2.00;1.60;;;32.10;1.00;;;;;;5023668;28;20172;-75
2022/08/02 13:38:31;;;;;;;1.70;1.20;;;32.40;1.00;;;;;;5025604;28;20192;-69
2022/08/02 13:41:09;;;;;;;1.43;1.17;;;32.50;1.00;;;;;;5040144;28;20211;-69
2022/08/02 13:43:38;;;;;;;2.90;1.30;;;32.70;1.00;;;;;;5017471;28;20173;-68
2022/08/02 13:46:05;;;;;;;5.83;1.40;;;32.80;1.00;;;;;;5015862;28;20416;-68
2022/08/02 13:48:31;;;;;;;1.77;1.23;;;32.90;1.00;;;;;;5013541;28;20412;-68
2022/08/02 13:50:57;;;;;;;2.63;1.20;;;33.00;1.00;;;;;;5013905;28;20962;-68
2022/08/02 13:53:27;;;;;;;1.60;1.50;;;33.10;1.00;;;;;;5018098;28;20428;-78
2022/08/02 13:55:57;;;;;;;1.77;1.00;;;33.00;1.00;;;;;;5026063;28;20180;-77
2022/08/02 13:58:33;;;;;;;1.20;1.10;;;32.90;1.00;;;;;;5027652;28;20411;-77
2022/08/02 14:00:58;;;;;;;1.40;1.23;;;32.90;1.00;;;;;;5025085;28;20431;-77
2022/08/02 14:03:25;;;;;;;1.27;1.17;;;33.00;1.00;;;;;;5023318;28;20930;-76
2022/08/02 14:05:51;;;;;;;1.30;1.20;;;33.00;1.00;;;;;;5024651;28;20268;-76
2022/08/02 14:08:32;;;;;;;2.03;1.60;;;33.10;1.00;;;;;;5016522;28;21054;-76
2022/08/02 14:10:58;;;;;;;15.37;1.30;;;32.80;1.00;;;;;;5019581;28;20469;-76
2022/08/02 14:13:33;;;;;;;1.63;1.03;;;32.70;1.00;;;;;;5025405;28;20419;-76
2022/08/02 14:16:09;;;;;;;4.00;1.37;;;32.60;1.00;;;;;;5030009;28;20423;-76
2022/08/02 14:18:38;;;;;;;1.40;1.30;;;32.90;1.00;;;;;;5026867;28;20526;-77
2022/08/02 14:21:09;;;;;;;1.10;1.00;;;33.10;1.00;;;;;;5015504;28;20451;-77
2022/08/02 14:23:34;;;;;;;2.30;1.40;;;33.30;1.00;;;;;;5015798;28;20419;-71
2022/08/02 14:26:00;;;;;;;2.93;1.10;;;33.40;1.00;;;;;;5029007;28;20473;-70